Time;durP1;ratioP1;P1;durP2;ratioP2;P2;SDS_P1;SDS_P2;PMS_P1;PMS_P2;Temp;Humidity;BMP_temperature;BMP_pressure;BME280_temperature;BME280_humidity;BME280_pressure;Samples;Min_cycle;Max_cycle;Signal;HPM_P1;HPM_P2
2023/10/02 00:05:05;;;;;;;3.85;1.10;;;;;;;16.29;59.47;100408.28;4458561;32;33729;-81
2023/10/02 00:07:42;;;;;;;2.28;1.15;;;;;;;16.13;59.82;100411.28;4459703;32;34925;-82
2023/10/02 00:10:15;;;;;;;2.28;0.90;;;;;;;15.94;60.38;100412.63;4458680;32;34095;-83
2023/10/02 00:12:58;;;;;;;1.12;1.02;;;;;;;16.03;60.15;100415.00;4462866;32;33360;-81
2023/10/02 00:15:29;;;;;;;1.85;1.10;;;;;;;15.93;60.31;100413.53;4462456;32;33998;-82
2023/10/02 00:17:58;;;;;;;1.52;1.08;;;;;;;16.12;59.84;100417.41;4458079;32;33028;-81
2023/10/02 00:20:26;;;;;;;1.42;1.10;;;;;;;15.99;60.48;100413.37;4458439;32;32940;-81
2023/10/02 00:22:57;;;;;;;2.22;1.27;;;;;;;15.68;61.27;100408.84;4459198;32;33565;-82
2023/10/02 00:25:27;;;;;;;4.00;1.30;;;;;;;15.92;60.66;100406.56;4464092;32;32332;-80
2023/10/02 00:27:59;;;;;;;2.22;1.35;;;;;;;15.92;60.47;100403.94;4456927;32;33248;-81
2023/10/02 00:30:35;;;;;;;2.05;1.33;;;;;;;15.85;60.75;100404.97;4457580;32;33052;-82
2023/10/02 00:33:11;;;;;;;1.98;1.20;;;;;;;15.96;60.44;100405.59;4452931;32;33558;-80
2023/10/02 00:35:50;;;;;;;1.85;1.20;;;;;;;15.94;60.30;100402.16;4458307;32;33860;-82
2023/10/02 00:38:20;;;;;;;1.15;1.05;;;;;;;15.70;60.97;100399.19;4459329;32;34355;-82
2023/10/02 00:40:49;;;;;;;1.65;1.12;;;;;;;15.54;61.56;100401.28;4459536;32;34187;-81
2023/10/02 00:46:03;;;;;;;2.72;1.10;;;;;;;15.64;61.02;100404.56;4458689;32;33726;-81
2023/10/02 00:48:33;;;;;;;3.05;1.23;;;;;;;15.72;60.42;100393.94;4448062;32;33265;-81
2023/10/02 00:51:07;;;;;;;2.00;1.33;;;;;;;15.52;61.49;100391.75;4462413;32;32468;-82
2023/10/02 00:53:45;;;;;;;2.85;1.25;;;;;;;15.54;60.94;100395.19;4457824;32;34546;-82
2023/10/02 00:56:20;;;;;;;1.98;1.25;;;;;;;15.53;61.23;100396.06;4459526;32;34231;-81
2023/10/02 00:58:58;;;;;;;2.95;1.23;;;;;;;15.57;61.11;100398.59;4455646;32;33304;-82
2023/10/02 01:01:30;;;;;;;1.80;1.20;;;;;;;15.26;61.94;100393.16;4456256;32;33138;-82
2023/10/02 01:04:10;;;;;;;1.77;1.10;;;;;;;15.41;61.56;100396.34;4462657;32;33998;-82
2023/10/02 01:07:04;;;;;;;1.92;1.52;;;;;;;15.38;61.93;100386.81;4450514;32;32335;-81
2023/10/02 01:09:34;;;;;;;2.80;1.25;;;;;;;15.47;61.67;100386.63;4460419;32;34680;-81
2023/10/02 01:12:05;;;;;;;1.62;1.10;;;;;;;15.38;61.96;100388.59;4457975;32;33237;-82
2023/10/02 01:14:50;;;;;;;2.62;1.33;;;;;;;15.45;61.73;100387.56;4458778;32;33091;-80
2023/10/02 01:17:21;;;;;;;2.70;1.20;;;;;;;15.30;62.09;100394.84;4456755;32;34117;-82
2023/10/02 01:19:54;;;;;;;3.75;1.33;;;;;;;15.40;61.96;100402.50;4465790;32;34344;-81
2023/10/02 01:22:28;;;;;;;2.00;1.67;;;;;;;15.60;61.35;100404.66;4459238;32;33918;-81
2023/10/02 01:25:12;;;;;;;1.70;1.15;;;;;;;15.58;61.46;100409.91;4457776;32;33465;-83
2023/10/02 01:27:47;;;;;;;3.53;1.42;;;;;;;15.55;61.73;100412.59;4460017;32;34533;-81
2023/10/02 01:30:18;;;;;;;1.20;1.10;;;;;;;15.49;61.86;100410.13;4459203;32;34288;-81
2023/10/02 01:33:06;;;;;;;;;;;;;;;15.35;62.17;100403.44;4464567;32;33120;-82
2023/10/02 01:35:36;;;;;;;2.87;1.17;;;;;;;15.32;61.90;100408.75;4463983;32;33644;-81
2023/10/02 01:38:12;;;;;;;2.60;1.27;;;;;;;15.54;61.24;100409.13;4459300;32;33562;-81
2023/10/02 01:40:48;;;;;;;3.67;1.30;;;;;;;15.21;62.29;100410.72;4451722;32;34254;-82
2023/10/02 01:43:24;;;;;;;1.90;1.30;;;;;;;15.30;62.14;100405.28;4459884;32;34030;-81
2023/10/02 01:45:56;;;;;;;3.60;1.40;;;;;;;15.29;61.99;100414.00;4463418;32;33609;-80
2023/10/02 01:48:40;;;;;;;2.50;1.15;;;;;;;15.47;61.04;100410.16;4465170;32;34917;-82
2023/10/02 01:51:20;;;;;;;2.47;1.55;;;;;;;15.27;62.02;100404.47;4458621;32;34167;-81
2023/10/02 01:53:51;;;;;;;2.58;1.42;;;;;;;15.08;62.52;100414.47;4459082;32;33028;-80
2023/10/02 01:56:22;;;;;;;1.52;1.00;;;;;;;14.84;63.31;100419.28;4459641;32;33575;-82
2023/10/02 01:58:52;;;;;;;4.45;1.50;;;;;;;14.72;63.87;100411.69;4462417;32;34725;-82
2023/10/02 02:01:22;;;;;;;1.48;1.20;;;;;;;15.10;62.57;100418.78;4464249;32;33594;-81
2023/10/02 02:03:55;;;;;;;1.37;1.15;;;;;;;15.08;62.50;100422.31;4458347;32;33947;-82
2023/10/02 02:06:25;;;;;;;2.10;1.10;;;;;;;15.19;61.65;100417.72;4460537;32;34463;-82
2023/10/02 02:08:58;;;;;;;3.30;1.70;;;;;;;15.01;62.51;100412.88;4460179;32;34625;-81
2023/10/02 02:11:34;;;;;;;8.68;1.42;;;;;;;14.74;63.30;100409.91;4457736;32;33841;-81
2023/10/02 02:14:04;;;;;;;2.15;1.30;;;;;;;15.03;62.63;100414.56;4461284;32;33378;-82
2023/10/02 02:16:34;;;;;;;2.50;1.40;;;;;;;14.85;63.10;100410.53;4456274;32;34764;-81
2023/10/02 02:19:06;;;;;;;2.47;1.37;;;;;;;14.74;63.44;100407.28;4459940;32;34392;-81
2023/10/02 02:21:38;;;;;;;1.98;1.30;;;;;;;14.81;63.28;100414.13;4459156;32;33717;-80
2023/10/02 02:24:11;;;;;;;3.00;1.55;;;;;;;14.91;62.87;100407.81;4465160;32;34122;-81
2023/10/02 02:26:42;;;;;;;2.05;1.08;;;;;;;14.94;62.87;100418.22;4458229;32;34610;-81
2023/10/02 02:29:23;;;;;;;3.37;1.20;;;;;;;14.82;63.30;100414.97;4457959;32;33881;-82
2023/10/02 02:31:54;;;;;;;1.65;1.12;;;;;;;14.87;62.92;100423.59;4457906;32;33706;-80
2023/10/02 02:34:25;;;;;;;2.28;1.10;;;;;;;14.80;63.14;100427.22;4458695;32;33991;-80
2023/10/02 02:36:57;;;;;;;3.10;1.08;;;;;;;14.83;63.35;100419.31;4463548;32;34306;-82
2023/10/02 02:39:27;;;;;;;1.02;0.90;;;;;;;14.67;63.74;100418.75;4458962;32;33653;-81
2023/10/02 02:42:18;;;;;;;3.03;1.35;;;;;;;14.85;63.10;100421.00;4461305;32;36199;-81
2023/10/02 02:44:49;;;;;;;1.42;0.95;;;;;;;14.67;63.86;100421.34;4461315;32;34196;-82
2023/10/02 02:47:21;;;;;;;1.98;1.40;;;;;;;14.78;63.41;100422.00;4461269;32;33786;-81
2023/10/02 02:49:52;;;;;;;3.03;1.30;;;;;;;14.87;63.11;100427.06;4467122;32;34484;-83
2023/10/02 02:52:24;;;;;;;2.80;1.00;;;;;;;14.61;63.96;100426.69;4461255;32;34060;-80
2023/10/02 02:54:59;;;;;;;1.15;1.00;;;;;;;14.77;63.32;100425.50;4461355;32;33460;-81
2023/10/02 02:57:31;;;;;;;1.95;1.15;;;;;;;14.82;63.50;100428.03;4459857;32;32363;-81
2023/10/02 03:02:46;;;;;;;1.35;0.95;;;;;;;14.87;63.06;100434.03;4456570;32;34293;-81
2023/10/02 03:05:20;;;;;;;2.35;1.20;;;;;;;14.83;63.30;100434.97;4461569;32;33416;-81
2023/10/02 03:07:54;;;;;;;1.48;0.98;;;;;;;14.77;63.46;100435.97;4461779;32;33424;-80
2023/10/02 03:10:24;;;;;;;1.45;0.90;;;;;;;14.87;63.20;100436.66;4461561;32;34628;-82
2023/10/02 03:12:55;;;;;;;1.30;0.88;;;;;;;15.04;62.28;100441.56;4461134;32;33612;-83
2023/10/02 03:15:45;;;;;;;1.45;1.08;;;;;;;14.80;63.07;100441.13;4464675;32;32457;-81
2023/10/02 03:18:31;;;;;;;1.25;0.90;;;;;;;14.83;62.96;100435.81;4454640;32;33716;-82
2023/10/02 03:21:13;;;;;;;1.90;1.05;;;;;;;14.84;62.64;100440.19;4458155;32;33375;-80
2023/10/02 03:23:43;;;;;;;1.58;0.80;;;;;;;14.88;62.60;100443.59;4455162;32;33780;-80
2023/10/02 03:26:26;;;;;;;3.08;1.30;;;;;;;14.86;62.67;100437.53;4458268;32;33156;-81
2023/10/02 03:29:01;;;;;;;2.55;1.50;;;;;;;14.89;62.35;100440.09;4458588;32;34508;-81
2023/10/02 03:31:43;;;;;;;3.47;1.35;;;;;;;14.75;62.89;100449.94;4464494;32;33925;-81
2023/10/02 03:34:33;;;;;;;1.65;1.00;;;;;;;14.75;62.97;100456.03;4456658;32;33865;-82
2023/10/02 03:37:12;;;;;;;;;;;;;;;14.98;62.54;100446.87;4459526;32;32975;-82
2023/10/02 03:40:13;;;;;;;2.40;1.30;;;;;;;14.82;63.06;100457.63;4459834;32;33841;-81
2023/10/02 03:42:42;;;;;;;2.65;1.17;;;;;;;14.78;63.21;100453.34;4458715;32;33923;-81
2023/10/02 03:45:13;;;;;;;3.80;1.30;;;;;;;14.86;63.11;100454.09;4459987;32;33489;-81
2023/10/02 03:47:43;;;;;;;2.17;1.67;;;;;;;14.83;63.43;100454.13;4464759;32;33492;-81
2023/10/02 03:50:14;;;;;;;1.83;1.05;;;;;;;14.97;63.19;100453.00;4461040;32;34480;-80
2023/10/02 03:52:45;;;;;;;1.20;0.95;;;;;;;15.00;63.13;100453.78;4458882;32;33759;-80
2023/10/02 03:55:17;;;;;;;2.00;1.60;;;;;;;15.00;63.54;100459.03;4459218;32;33755;-82
2023/10/02 03:57:49;;;;;;;1.08;0.95;;;;;;;14.91;63.67;100459.22;4462017;32;33434;-81
2023/10/02 04:00:22;;;;;;;3.90;1.70;;;;;;;15.08;63.06;100459.75;4458460;32;33943;-82
2023/10/02 04:02:52;;;;;;;1.60;1.10;;;;;;;15.08;63.41;100464.13;4456687;32;33817;-81
2023/10/02 04:05:32;;;;;;;5.72;1.55;;;;;;;15.14;63.31;100464.00;4461840;32;36365;-81
2023/10/02 04:08:21;;;;;;;3.22;1.23;;;;;;;15.33;62.63;100467.97;4460469;32;33992;-81
2023/10/02 04:11:09;;;;;;;1.37;1.00;;;;;;;15.19;63.39;100461.28;4445133;32;33859;-80
2023/10/02 04:13:39;;;;;;;1.50;1.17;;;;;;;15.34;62.45;100458.34;4450800;32;34139;-80
2023/10/02 04:19:00;;;;;;;1.85;1.10;;;;;;;15.26;62.86;100457.66;4445210;32;34122;-82
2023/10/02 04:21:29;;;;;;;1.48;1.27;;;;;;;15.57;61.87;100450.91;4457080;32;33898;-81
2023/10/02 04:23:58;;;;;;;2.28;1.08;;;;;;;15.41;62.62;100453.87;4474566;32;34403;-82
2023/10/02 04:26:31;;;;;;;1.95;1.25;;;;;;;15.38;63.16;100459.16;4466328;32;34406;-81
2023/10/02 04:29:13;;;;;;;;;;;;;;;15.47;63.02;100461.59;4460660;32;33304;-81
2023/10/02 04:31:44;;;;;;;2.50;1.25;;;;;;;15.77;61.58;100457.47;4460381;32;34106;-83
2023/10/02 04:34:24;;;;;;;3.67;1.58;;;;;;;15.87;61.02;100460.75;4454014;32;34484;-83
2023/10/02 04:36:54;;;;;;;1.67;1.05;;;;;;;15.79;61.14;100464.41;4458056;32;33738;-80
2023/10/02 04:42:15;;;;;;;2.05;1.25;;;;;;;15.67;62.00;100462.03;4463327;32;33744;-83
2023/10/02 04:44:45;;;;;;;2.20;1.42;;;;;;;15.87;61.29;100464.22;4459968;32;34664;-82
2023/10/02 04:47:19;;;;;;;2.30;1.45;;;;;;;15.80;61.46;100462.62;4458640;32;35425;-81
2023/10/02 04:52:55;;;;;;;4.00;1.33;;;;;;;15.97;61.15;100472.72;4458171;32;33649;-82
2023/10/02 04:55:27;;;;;;;3.90;1.25;;;;;;;16.06;60.79;100474.28;4464346;32;33995;-81
2023/10/02 04:58:03;;;;;;;2.62;1.35;;;;;;;16.29;59.80;100476.38;4453964;32;33852;-81
2023/10/02 05:00:34;;;;;;;1.77;1.00;;;;;;;16.11;60.44;100477.66;4457811;32;33373;-82
2023/10/02 05:06:00;;;;;;;2.15;1.20;;;;;;;16.04;60.88;100489.16;4448541;32;33996;-81
2023/10/02 05:08:33;;;;;;;3.42;1.23;;;;;;;15.99;60.91;100498.00;4465323;32;32809;-81
2023/10/02 05:11:06;;;;;;;1.60;1.25;;;;;;;16.16;60.40;100497.59;4463785;32;33837;-81
2023/10/02 05:13:53;;;;;;;3.85;1.20;;;;;;;16.13;60.50;100502.03;4452815;32;34549;-80
2023/10/02 05:16:32;;;;;;;4.80;1.12;;;;;;;16.09;60.96;100508.22;4455568;32;34359;-81
2023/10/02 05:19:05;;;;;;;2.80;1.40;;;;;;;15.97;61.20;100502.41;4455573;32;33357;-81
2023/10/02 05:21:38;;;;;;;1.73;1.23;;;;;;;16.19;60.56;100505.37;4455316;32;34020;-81
2023/10/02 05:24:11;;;;;;;2.12;1.20;;;;;;;16.21;60.29;100507.94;4459709;32;34196;-81
2023/10/02 05:26:44;;;;;;;4.95;1.60;;;;;;;16.12;60.58;100506.41;4457864;32;33822;-80
2023/10/02 05:29:17;;;;;;;3.12;1.30;;;;;;;16.07;60.56;100513.50;4456345;32;32967;-82
2023/10/02 05:31:48;;;;;;;2.22;1.67;;;;;;;15.94;61.09;100506.81;4458480;32;34195;-82
2023/10/02 05:34:22;;;;;;;4.35;1.75;;;;;;;16.15;60.71;100508.09;4459526;32;34681;-81
2023/10/02 05:37:11;;;;;;;5.57;1.67;;;;;;;15.94;61.10;100515.53;4463646;32;33935;-80
2023/10/02 05:39:41;;;;;;;3.30;1.60;;;;;;;15.88;61.31;100514.81;4457294;32;34385;-80
2023/10/02 05:42:13;;;;;;;3.65;1.45;;;;;;;15.99;60.75;100515.44;4452957;32;33342;-82
2023/10/02 05:44:43;;;;;;;2.08;1.10;;;;;;;15.93;61.25;100528.66;4455074;32;34270;-80
2023/10/02 05:47:15;;;;;;;1.87;1.10;;;;;;;15.95;61.03;100519.03;4460170;32;33836;-80
2023/10/02 05:49:48;;;;;;;2.10;1.30;;;;;;;16.17;60.47;100533.34;4462502;32;33920;-79
2023/10/02 05:52:23;;;;;;;1.90;1.23;;;;;;;15.98;61.15;100529.41;4457625;32;33740;-81
2023/10/02 05:54:54;;;;;;;2.92;1.30;;;;;;;15.84;61.71;100542.78;4459262;32;34114;-80
2023/10/02 05:57:31;;;;;;;2.67;1.48;;;;;;;15.95;61.50;100535.59;4457365;32;33592;-81
2023/10/02 06:00:16;;;;;;;1.77;1.02;;;;;;;16.05;61.60;100530.16;4460313;32;33651;-80
2023/10/02 06:02:57;;;;;;;3.00;1.37;;;;;;;16.15;61.31;100536.91;4464950;32;33088;-81
2023/10/02 06:05:32;;;;;;;2.60;1.70;;;;;;;16.06;61.76;100529.25;4457524;32;33947;-81
2023/10/02 06:08:01;;;;;;;2.83;1.40;;;;;;;15.98;62.42;100542.50;4452541;32;33673;-80
2023/10/02 06:10:34;;;;;;;5.55;1.67;;;;;;;16.33;61.27;100536.47;4453043;32;33446;-81
2023/10/02 06:13:05;;;;;;;3.17;1.33;;;;;;;16.36;60.53;100541.66;4461469;32;33963;-81
2023/10/02 06:15:46;;;;;;;0.85;0.85;;;;;;;16.58;59.34;100552.47;4467111;32;34197;-82
2023/10/02 06:18:24;;;;;;;;;;;;;;;16.48;59.49;100556.22;4461795;32;35339;-80
2023/10/02 06:21:01;;;;;;;6.32;1.90;;;;;;;16.41;60.11;100565.97;4454178;32;34924;-80
2023/10/02 06:23:37;;;;;;;1.58;1.10;;;;;;;16.69;59.55;100553.97;4458601;32;34655;-81
2023/10/02 06:26:09;;;;;;;1.92;1.05;;;;;;;16.83;58.93;100567.62;4446561;32;33445;-81
2023/10/02 06:28:44;;;;;;;4.32;1.77;;;;;;;16.74;59.51;100571.28;4451685;32;34356;-81
2023/10/02 06:31:15;;;;;;;1.17;0.80;;;;;;;16.80;59.74;100570.31;4446207;32;34170;-82
2023/10/02 06:33:48;;;;;;;2.10;1.58;;;;;;;16.75;60.51;100562.53;4453180;32;34350;-80
2023/10/02 06:36:19;;;;;;;2.08;1.00;;;;;;;16.84;60.67;100564.97;4459020;32;33515;-81
2023/10/02 06:38:48;;;;;;;1.80;1.00;;;;;;;17.01;60.42;100569.78;4447053;32;33024;-81
2023/10/02 06:41:17;;;;;;;4.47;1.15;;;;;;;17.10;60.62;100567.81;4464030;32;33676;-81
2023/10/02 06:43:49;;;;;;;4.53;1.25;;;;;;;17.14;60.93;100569.47;4457611;32;32450;-80
2023/10/02 06:46:19;;;;;;;22.62;5.00;;;;;;;17.26;60.60;100562.13;4461010;32;33983;-80
2023/10/02 06:48:54;;;;;;;12.18;2.62;;;;;;;17.18;60.88;100566.72;4457595;32;33961;-81
2023/10/02 06:51:25;;;;;;;6.03;3.00;;;;;;;17.50;59.63;100564.97;4465301;32;33899;-81
2023/10/02 06:54:07;;;;;;;;;;;;;;;17.51;59.59;100571.09;4460928;32;33991;-81
2023/10/02 06:56:35;;;;;;;;;;;;;;;17.60;58.93;100565.59;4460070;32;34509;-82
2023/10/02 06:59:05;;;;;;;11.75;2.10;;;;;;;17.79;57.66;100566.78;4459425;32;33878;-81
2023/10/02 07:01:34;;;;;;;14.32;3.20;;;;;;;17.64;57.78;100570.72;4455507;32;34476;-81
2023/10/02 07:04:09;;;;;;;6.28;1.77;;;;;;;17.78;57.17;100572.06;4466865;32;33936;-81
2023/10/02 07:06:40;;;;;;;3.28;1.50;;;;;;;17.94;56.06;100569.91;4461124;32;35046;-82
2023/10/02 07:09:12;;;;;;;5.37;1.92;;;;;;;17.90;56.77;100570.00;4456269;32;33114;-81
2023/10/02 07:11:42;;;;;;;12.45;1.73;;;;;;;17.90;56.43;100570.00;4467439;32;33618;-81
2023/10/02 07:14:12;;;;;;;2.70;1.20;;;;;;;17.92;56.07;100570.78;4466786;32;33114;-80
2023/10/02 07:16:41;;;;;;;4.18;1.77;;;;;;;18.10;55.75;100573.78;4463856;32;32262;-81
2023/10/02 07:19:12;;;;;;;7.75;2.75;;;;;;;18.31;55.24;100567.88;4460237;32;33667;-82
2023/10/02 07:21:42;;;;;;;3.70;1.25;;;;;;;18.61;52.92;100574.84;4454618;32;33604;-80
2023/10/02 07:27:05;;;;;;;2.62;1.67;;;;;;;18.23;54.97;100572.50;4501789;31;213248;-82
2023/10/02 07:29:37;;;;;;;2.83;1.37;;;;;;;18.51;54.35;100576.91;4509116;31;33466;-83
2023/10/02 07:32:09;;;;;;;2.45;1.02;;;;;;;18.46;54.39;100579.69;4495968;31;31278;-83
2023/10/02 07:34:38;;;;;;;;;;;;;;;18.42;54.89;100582.44;4494194;31;34889;-83
2023/10/02 07:37:07;;;;;;;0.75;0.75;;;;;;;18.47;54.96;100580.53;4503645;31;33945;-81
2023/10/02 07:39:36;;;;;;;4.32;1.62;;;;;;;18.49;54.72;100576.94;4506259;31;32970;-81
2023/10/02 07:42:10;;;;;;;1.25;0.90;;;;;;;18.60;55.45;100573.97;4499151;31;35256;-80
2023/10/02 07:44:39;;;;;;;2.67;1.62;;;;;;;18.71;54.81;100578.88;4494527;31;34024;-81
2023/10/02 07:47:17;;;;;;;4.07;2.10;;;;;;;18.73;54.64;100583.19;4503331;31;33626;-80
2023/10/02 07:49:51;;;;;;;6.28;1.90;;;;;;;18.86;53.99;100582.81;4492717;31;33210;-80
2023/10/02 07:52:38;;;;;;;4.65;1.37;;;;;;;18.58;55.07;100583.69;4506508;31;33537;-81
2023/10/02 07:55:10;;;;;;;2.30;1.05;;;;;;;19.13;53.40;100587.13;4503184;31;34420;-80
2023/10/02 07:57:41;;;;;;;3.45;1.10;;;;;;;18.80;54.72;100593.50;4501152;31;32378;-79
2023/10/02 08:00:33;;;;;;;1.55;1.00;;;;;;;18.92;53.83;100593.13;4496889;31;36065;-82
2023/10/02 08:03:02;;;;;;;3.75;1.75;;;;;;;18.97;54.01;100594.69;4498472;31;33879;-81
2023/10/02 08:05:34;;;;;;;3.05;1.15;;;;;;;19.38;53.63;100599.44;4500287;31;34094;-82
2023/10/02 08:08:09;;;;;;;3.05;1.00;;;;;;;19.19;53.75;100596.59;4492443;31;34420;-81
2023/10/02 08:10:49;;;;;;;2.80;1.20;;;;;;;19.33;53.14;100590.84;4487563;31;32963;-81
2023/10/02 08:13:32;;;;;;;2.25;1.05;;;;;;;19.50;53.31;100601.66;4487095;32;33901;-81
2023/10/02 08:16:07;;;;;;;4.85;2.15;;;;;;;19.51;53.11;100602.50;4488432;32;34310;-81
2023/10/02 08:18:55;;;;;;;1.55;0.90;;;;;;;19.44;53.41;100599.22;4488779;32;34507;-82
2023/10/02 08:21:34;;;;;;;12.85;2.87;;;;;;;19.62;52.86;100595.09;4494063;31;33867;-81
2023/10/02 08:24:04;;;;;;;3.50;1.90;;;;;;;19.56;53.04;100600.56;4501050;31;33684;-80
2023/10/02 08:26:38;;;;;;;2.30;1.20;;;;;;;19.72;52.83;100590.38;4503039;31;33555;-80
2023/10/02 08:29:09;;;;;;;5.87;1.52;;;;;;;19.88;52.38;100594.13;4504198;31;34252;-80
2023/10/02 08:31:42;;;;;;;2.35;0.95;;;;;;;20.18;51.27;100592.13;4501947;31;33196;-80
2023/10/02 08:34:13;;;;;;;3.17;0.73;;;;;;;20.11;50.69;100589.81;4509863;31;33569;-81
2023/10/02 08:36:43;;;;;;;;;;;;;;;20.22;51.52;100585.84;4501525;31;33807;-80
2023/10/02 08:39:12;;;;;;;4.05;1.08;;;;;;;20.23;51.56;100592.81;4493610;31;33816;-81
2023/10/02 08:41:50;;;;;;;3.70;1.25;;;;;;;20.11;51.16;100584.53;4493492;31;33818;-81
2023/10/02 08:44:22;;;;;;;2.90;1.25;;;;;;;20.13;50.32;100587.97;4493759;31;34013;-80
2023/10/02 08:46:55;;;;;;;3.08;1.60;;;;;;;20.45;49.22;100579.66;4499006;31;33560;-80
2023/10/02 08:49:26;;;;;;;1.67;1.05;;;;;;;20.16;50.33;100580.78;4482406;31;34290;-80
2023/10/02 08:51:55;;;;;;;3.20;1.27;;;;;;;20.47;49.21;100576.97;4477750;32;33446;-80
2023/10/02 08:54:27;;;;;;;1.35;0.68;;;;;;;20.54;48.33;100577.56;4477606;32;33559;-80
2023/10/02 08:57:05;;;;;;;2.83;1.02;;;;;;;20.42;49.40;100584.19;4482172;31;34482;-80
2023/10/02 08:59:38;;;;;;;11.63;3.03;;;;;;;20.69;49.98;100587.53;4488102;31;33642;-79
2023/10/02 09:02:13;;;;;;;3.75;1.37;;;;;;;20.72;49.65;100576.84;4485166;31;33073;-80
2023/10/02 09:05:09;;;;;;;3.58;0.93;;;;;;;20.76;49.30;100589.00;4477582;32;34431;-79
2023/10/02 09:10:25;;;;;;;4.43;1.42;;;;;;;20.76;48.11;100575.81;4477453;31;33599;-81
2023/10/02 09:13:14;;;;;;;4.70;1.73;;;;;;;20.85;48.10;100582.47;4494109;31;32528;-81
2023/10/02 09:15:48;;;;;;;5.87;1.17;;;;;;;20.91;47.14;100578.72;4498865;31;33570;-80
2023/10/02 09:18:34;;;;;;;1.95;1.10;;;;;;;20.94;47.00;100574.16;4493343;31;34446;-80
2023/10/02 09:21:15;;;;;;;4.55;1.42;;;;;;;21.13;47.18;100578.69;4477914;32;33482;-81
2023/10/02 09:23:51;;;;;;;3.15;1.25;;;;;;;21.30;46.98;100574.38;4477528;32;33101;-80
2023/10/02 09:26:24;;;;;;;2.72;1.12;;;;;;;21.13;48.19;100570.75;4478856;32;33420;-81
2023/10/02 09:29:00;;;;;;;3.12;1.30;;;;;;;21.26;47.57;100572.81;4484097;31;34072;-81
2023/10/02 09:31:34;;;;;;;5.47;2.65;;;;;;;21.10;47.59;100567.31;4482963;32;33334;-80
2023/10/02 09:34:11;;;;;;;3.47;1.00;;;;;;;21.42;46.54;100559.81;4481598;31;33041;-81
2023/10/02 09:37:11;;;;;;;7.05;0.90;;;;;;;21.49;46.84;100568.34;4493126;31;33201;-81
2023/10/02 09:40:14;;;;;;;3.67;1.30;;;;;;;21.55;46.82;100557.47;4493065;31;33683;-81
2023/10/02 09:42:48;;;;;;;3.70;1.15;;;;;;;21.74;47.55;100560.16;4493195;31;34166;-81
2023/10/02 09:45:30;;;;;;;2.65;0.90;;;;;;;21.49;46.44;100555.13;4486873;31;33253;-81
2023/10/02 09:48:05;;;;;;;5.00;0.93;;;;;;;21.78;45.42;100558.25;4482593;32;34336;-79
2023/10/02 09:50:41;;;;;;;0.95;0.65;;;;;;;22.00;45.23;100566.88;4476706;32;33609;-80
2023/10/02 09:53:15;;;;;;;1.95;0.98;;;;;;;21.89;45.72;100562.09;4478771;31;34319;-81
2023/10/02 09:55:58;;;;;;;8.20;1.20;;;;;;;21.94;44.92;100560.09;4490520;31;33823;-81
2023/10/02 09:58:33;;;;;;;5.03;1.15;;;;;;;21.88;45.61;100560.38;4477181;32;33911;-81
2023/10/02 10:01:36;;;;;;;2.00;1.12;;;;;;;21.93;45.38;100554.88;4482152;32;33932;-81
2023/10/02 10:07:09;;;;;;;1.25;0.60;;;;;;;22.24;46.26;100553.47;4492464;31;34185;-81
2023/10/02 10:15:23;;;;;;;2.75;1.35;;;;;;;22.34;43.73;100549.44;4477229;32;33962;-81
2023/10/02 10:17:55;;;;;;;2.22;1.00;;;;;;;22.24;44.50;100550.84;4477006;31;33865;-80
2023/10/02 10:20:30;;;;;;;4.62;1.48;;;;;;;22.48;43.68;100543.50;4498804;31;34334;-80
2023/10/02 10:23:31;;;;;;;2.95;1.37;;;;;;;22.53;43.80;100549.41;4493749;31;33644;-81
2023/10/02 10:26:07;;;;;;;3.42;1.45;;;;;;;22.74;42.69;100555.44;4476651;32;34135;-80
2023/10/02 10:28:51;;;;;;;3.47;1.30;;;;;;;22.84;42.50;100551.41;4481729;31;33866;-81
2023/10/02 10:31:27;;;;;;;1.87;0.98;;;;;;;22.46;44.03;100550.66;4492555;31;33855;-79
2023/10/02 10:33:56;;;;;;;3.12;0.90;;;;;;;22.73;42.72;100543.97;4493056;31;33995;-81
2023/10/02 10:36:37;;;;;;;1.65;1.10;;;;;;;22.86;42.22;100546.88;4498203;31;33391;-81
2023/10/02 10:40:40;;;;;;;2.33;0.85;;;;;;;22.88;41.35;100539.72;4498722;31;33438;-80
2023/10/02 10:42:59;;;;;;;2.30;0.80;;;;;;;22.91;40.99;100534.28;4480842;32;32000;-80
2023/10/02 10:45:33;;;;;;;1.98;0.73;;;;;;;22.80;41.37;100536.59;4482159;31;33699;-80
2023/10/02 10:48:02;;;;;;;2.65;1.10;;;;;;;23.10;41.31;100538.63;4476940;32;33613;-81
2023/10/02 10:50:32;;;;;;;3.40;1.17;;;;;;;22.96;42.19;100532.25;4476735;32;34158;-81
2023/10/02 10:55:47;;;;;;;4.00;1.20;;;;;;;23.14;43.04;100529.63;4498015;31;33538;-81
2023/10/02 10:58:31;;;;;;;2.47;1.37;;;;;;;23.09;41.68;100526.34;4497603;31;33278;-81
2023/10/02 11:01:02;;;;;;;3.67;1.42;;;;;;;22.96;42.75;100515.53;4491940;31;33350;-81
2023/10/02 11:03:31;;;;;;;2.85;1.50;;;;;;;23.21;42.05;100507.19;4487039;31;33713;-80
2023/10/02 11:06:02;;;;;;;3.97;1.12;;;;;;;23.13;42.72;100512.03;4480355;31;34803;-80
2023/10/02 11:08:37;;;;;;;6.85;1.12;;;;;;;23.20;42.66;100508.13;4482051;32;33536;-80
2023/10/02 11:11:18;;;;;;;2.15;1.00;;;;;;;23.29;42.32;100499.66;4481800;31;33539;-81
2023/10/02 11:13:54;;;;;;;1.23;0.77;;;;;;;23.24;42.28;100499.06;4482880;31;33492;-80
2023/10/02 11:16:31;;;;;;;3.53;1.70;;;;;;;23.42;41.66;100497.25;4486220;31;33373;-80
2023/10/02 11:19:21;;;;;;;2.65;1.00;;;;;;;23.61;41.42;100495.31;4483207;31;34533;-81
2023/10/02 11:22:14;;;;;;;1.75;1.35;;;;;;;23.64;42.84;100495.13;4475898;32;34104;-80
2023/10/02 11:24:48;;;;;;;5.87;2.35;;;;;;;23.83;42.53;100494.16;4482545;31;33647;-80
2023/10/02 11:27:18;;;;;;;2.35;0.85;;;;;;;23.76;41.15;100480.41;4481771;32;33686;-80
2023/10/02 11:30:00;;;;;;;7.87;2.10;;;;;;;23.90;41.77;100481.44;4476387;32;33620;-80
2023/10/02 11:32:47;;;;;;;2.80;0.60;;;;;;;23.76;41.81;100485.69;4476360;32;32635;-79
2023/10/02 11:35:17;;;;;;;3.10;0.90;;;;;;;23.89;40.91;100483.22;4491409;31;33814;-80
2023/10/02 11:37:48;;;;;;;3.92;1.65;;;;;;;24.19;42.17;100488.59;4492002;31;33153;-80
2023/10/02 11:40:24;;;;;;;0.98;0.77;;;;;;;23.93;41.09;100483.91;4497392;31;33824;-80
2023/10/02 11:42:53;;;;;;;1.85;0.73;;;;;;;23.88;40.44;100475.38;4490141;31;33150;-80
2023/10/02 11:45:22;;;;;;;1.35;0.60;;;;;;;24.12;40.02;100479.28;4480369;31;33633;-80
2023/10/02 11:47:53;;;;;;;1.48;0.77;;;;;;;24.07;40.75;100476.03;4475067;32;33901;-81
2023/10/02 11:50:23;;;;;;;3.17;0.88;;;;;;;24.09;39.94;100471.50;4494920;31;33534;-81
2023/10/02 11:52:52;;;;;;;3.35;0.88;;;;;;;24.03;39.46;100470.03;4490303;31;33205;-81
2023/10/02 11:55:24;;;;;;;2.78;1.05;;;;;;;24.00;39.84;100466.72;4490448;31;33986;-80
2023/10/02 11:57:53;;;;;;;2.90;0.70;;;;;;;24.09;40.52;100460.91;4491472;31;33962;-81
2023/10/02 12:00:23;;;;;;;1.55;0.73;;;;;;;24.10;40.79;100456.44;4491665;31;34373;-81
2023/10/02 12:02:53;;;;;;;;;;;;;;;23.95;40.58;100447.56;4497608;31;32575;-81
2023/10/02 12:05:22;;;;;;;1.98;1.05;;;;;;;24.25;40.47;100451.09;4491617;31;33824;-80
2023/10/02 12:07:51;;;;;;;2.70;0.77;;;;;;;24.49;39.92;100442.69;4494786;31;34778;-80
2023/10/02 12:10:22;;;;;;;1.67;0.68;;;;;;;24.51;40.34;100451.41;4491194;31;34363;-79
2023/10/02 12:12:50;;;;;;;2.97;1.40;;;;;;;24.77;40.21;100443.72;4498273;31;34216;-80
2023/10/02 12:15:19;;;;;;;3.47;2.12;;;;;;;24.76;39.70;100452.59;4489312;31;34137;-81
2023/10/02 12:17:48;;;;;;;2.00;0.77;;;;;;;24.73;37.92;100440.37;4479838;31;34812;-80
2023/10/02 12:20:22;;;;;;;2.87;0.75;;;;;;;24.71;38.79;100442.25;4487280;31;33469;-80
2023/10/02 12:22:52;;;;;;;1.00;0.55;;;;;;;24.54;38.50;100445.91;4477632;32;33740;-81
2023/10/02 12:25:22;;;;;;;2.65;1.00;;;;;;;24.59;38.49;100437.69;4492213;31;33406;-79
2023/10/02 12:27:52;;;;;;;2.53;1.10;;;;;;;24.65;37.92;100434.69;4493501;31;33203;-81
2023/10/02 12:30:21;;;;;;;3.50;1.60;;;;;;;24.90;38.13;100437.53;4493833;31;33414;-80
2023/10/02 12:32:53;;;;;;;2.85;0.73;;;;;;;25.00;38.08;100423.72;4493485;31;33727;-80
2023/10/02 12:35:23;;;;;;;1.40;0.68;;;;;;;24.96;38.78;100420.41;4489665;31;33638;-79
2023/10/02 12:37:53;;;;;;;1.70;0.65;;;;;;;25.12;37.52;100423.78;4492724;31;34578;-79
2023/10/02 12:40:31;;;;;;;3.05;1.02;;;;;;;25.12;38.23;100415.81;4485495;31;32951;-80